createdAt,value
2023-05-05T00:02:50.843Z,4.20
2023-05-05T00:07:57.910Z,3.90
2023-05-05T00:13:05.034Z,3.90
2023-05-05T00:18:12.739Z,4.40
2023-05-05T00:23:20.506Z,3.60
2023-05-05T00:28:27.718Z,3.80
2023-05-05T00:33:34.673Z,5.20
2023-05-05T00:38:41.648Z,5.50
2023-05-05T00:43:48.844Z,4.70
2023-05-05T00:48:56.570Z,5.80
2023-05-05T00:54:03.824Z,4.30
2023-05-05T00:59:10.834Z,4.80
2023-05-05T01:09:33.731Z,4.60
2023-05-05T01:14:45.756Z,4.90
2023-05-05T01:20:04.317Z,4.00
2023-05-05T01:25:36.712Z,4.40
2023-05-05T01:31:07.664Z,3.90
2023-05-05T01:36:22.726Z,4.60
2023-05-05T01:41:34.574Z,4.00
2023-05-05T01:46:43.052Z,3.70
2023-05-05T01:51:52.461Z,7.70
2023-05-05T01:57:00.632Z,3.70
2023-05-05T02:02:10.258Z,3.70
2023-05-05T02:07:18.620Z,4.20
2023-05-05T02:12:26.747Z,4.50
2023-05-05T02:17:35.268Z,4.30
2023-05-05T02:22:42.370Z,4.30
2023-05-05T02:27:51.914Z,5.00
2023-05-05T02:33:06.784Z,4.50
2023-05-05T02:38:18.499Z,4.60
2023-05-05T02:43:31.130Z,4.30
2023-05-05T02:48:38.609Z,3.50
2023-05-05T02:53:45.845Z,5.20
2023-05-05T02:58:58.221Z,3.30
2023-05-05T03:04:11.781Z,4.20
2023-05-05T03:09:29.101Z,3.80
2023-05-05T03:14:41.644Z,4.70
2023-05-05T03:19:50.782Z,4.60
2023-05-05T03:30:05.250Z,3.40
2023-05-05T03:35:14.174Z,3.90
2023-05-05T03:40:29.697Z,4.20
2023-05-05T03:45:44.607Z,3.40
2023-05-05T03:50:53.158Z,3.90
2023-05-05T03:56:01.281Z,4.60
2023-05-05T04:01:08.471Z,4.10
2023-05-05T04:11:22.797Z,4.20
2023-05-05T04:16:31.243Z,4.80
2023-05-05T04:21:39.340Z,5.40
2023-05-05T04:26:46.492Z,4.90
2023-05-05T04:31:54.048Z,4.70
2023-05-05T04:37:01.164Z,4.80
2023-05-05T04:42:09.471Z,4.90
2023-05-05T04:47:16.784Z,4.90
2023-05-05T04:52:24.641Z,5.40
2023-05-05T04:57:32.637Z,5.20
2023-05-05T05:02:39.788Z,4.90
2023-05-05T05:07:47.394Z,4.50
2023-05-05T05:12:54.699Z,4.40
2023-05-05T05:18:01.810Z,4.30
2023-05-05T05:23:08.943Z,10.70
2023-05-05T05:28:20.765Z,4.20
2023-05-05T05:33:31.504Z,3.60
2023-05-05T05:38:39.117Z,3.70
2023-05-05T05:43:46.906Z,4.00
2023-05-05T05:48:54.085Z,3.90
2023-05-05T05:54:01.478Z,4.10
2023-05-05T05:59:10.298Z,4.00
2023-05-05T06:04:17.980Z,4.00
2023-05-05T06:09:25.312Z,4.80
2023-05-05T06:14:32.861Z,4.10
2023-05-05T06:19:41.301Z,4.00
2023-05-05T06:24:48.804Z,4.30
2023-05-05T06:35:02.591Z,4.50
2023-05-05T06:40:11.994Z,3.50
2023-05-05T06:45:19.557Z,6.00
2023-05-05T06:50:27.163Z,4.50
2023-05-05T06:55:34.319Z,4.60
2023-05-05T07:00:42.768Z,3.90
2023-05-05T07:05:49.726Z,4.70
2023-05-05T07:10:56.756Z,5.50
2023-05-05T07:16:04.047Z,4.90
2023-05-05T07:21:11.128Z,4.40
2023-05-05T07:26:18.596Z,5.00
2023-05-05T07:31:25.970Z,4.30
2023-05-05T07:36:33.116Z,5.70
2023-05-05T07:41:40.269Z,4.70
2023-05-05T07:46:47.719Z,5.10
2023-05-05T07:51:55.571Z,4.70
2023-05-05T07:57:03.764Z,4.40
2023-05-05T08:02:10.954Z,4.90
2023-05-05T08:07:18.175Z,5.30
2023-05-05T08:12:25.228Z,4.80
2023-05-05T08:17:44.200Z,4.60
2023-05-05T08:22:53.027Z,5.20
2023-05-05T08:28:00.069Z,4.70
2023-05-05T08:33:07.310Z,5.20
2023-05-05T08:38:14.973Z,5.60
2023-05-05T08:43:24.039Z,5.20
2023-05-05T08:48:34.771Z,5.10
2023-05-05T08:53:53.472Z,5.70
2023-05-05T08:59:04.277Z,5.80
2023-05-05T09:04:12.677Z,4.80
2023-05-05T09:09:20.698Z,5.70
2023-05-05T09:14:27.828Z,6.10
2023-05-05T09:19:53.814Z,5.20
2023-05-05T09:25:03.460Z,5.80
2023-05-05T09:30:12.691Z,5.80
2023-05-05T09:35:20.849Z,6.10
2023-05-05T09:40:28.321Z,6.00
2023-05-05T09:45:35.397Z,4.60
2023-05-05T09:50:47.027Z,5.10
2023-05-05T09:56:01.498Z,6.10
2023-05-05T10:01:22.573Z,5.90
2023-05-05T10:06:44.233Z,5.50
2023-05-05T10:11:51.661Z,6.50
2023-05-05T10:17:01.908Z,5.50
2023-05-05T10:22:11.541Z,5.90
2023-05-05T10:27:23.818Z,5.20
2023-05-05T10:32:54.342Z,5.20
2023-05-05T10:38:04.932Z,4.80
2023-05-05T10:43:12.418Z,4.60
2023-05-05T10:48:26.830Z,4.70
2023-05-05T10:53:42.522Z,4.90
2023-05-05T10:58:59.841Z,4.70
2023-05-05T11:04:27.000Z,4.00
2023-05-05T11:09:37.216Z,3.60
2023-05-05T11:14:44.655Z,4.50
2023-05-05T11:19:52.710Z,3.90
2023-05-05T11:24:59.843Z,4.00
2023-05-05T11:30:13.283Z,3.40
2023-05-05T11:35:21.213Z,3.80
2023-05-05T11:40:33.789Z,2.80
2023-05-05T11:45:40.981Z,3.60
2023-05-05T11:50:49.519Z,3.60
2023-05-05T11:56:10.807Z,3.00
2023-05-05T12:01:18.791Z,2.80
2023-05-05T12:06:26.975Z,3.10
2023-05-05T12:11:34.316Z,3.70
2023-05-05T12:16:41.597Z,3.50
2023-05-05T12:21:48.685Z,3.20
2023-05-05T12:26:55.916Z,3.80
2023-05-05T12:32:03.276Z,3.70
2023-05-05T12:37:12.721Z,3.40
2023-05-05T12:42:20.630Z,2.80
2023-05-05T12:47:38.745Z,3.20
2023-05-05T12:52:46.921Z,3.20
2023-05-05T12:58:04.834Z,3.30
2023-05-05T13:08:58.253Z,3.50
2023-05-05T13:14:05.665Z,3.40
2023-05-05T13:19:12.866Z,3.50
2023-05-05T13:24:31.067Z,2.90
2023-05-05T13:29:42.715Z,3.20
2023-05-05T13:34:49.921Z,3.50
2023-05-05T13:40:00.598Z,3.40
2023-05-05T13:45:09.499Z,2.50
2023-05-05T13:50:18.482Z,2.60
2023-05-05T13:55:25.633Z,3.00
2023-05-05T14:00:35.857Z,3.00
2023-05-05T14:06:03.604Z,2.40
2023-05-05T14:11:11.552Z,2.60
2023-05-05T14:16:18.860Z,3.20
2023-05-05T14:21:26.148Z,2.30
2023-05-05T14:26:33.420Z,2.90
2023-05-05T14:31:44.811Z,2.80
2023-05-05T14:36:52.453Z,3.30
2023-05-05T14:42:02.218Z,3.10
2023-05-05T14:47:18.742Z,2.90
2023-05-05T14:52:26.387Z,2.80
2023-05-05T14:57:34.082Z,2.30
2023-05-05T15:02:41.141Z,2.60
2023-05-05T15:07:54.619Z,2.60
2023-05-05T15:13:12.031Z,2.60
2023-05-05T15:18:19.379Z,3.00
2023-05-05T15:23:28.683Z,2.40
2023-05-05T15:28:36.416Z,2.00
2023-05-05T15:33:48.173Z,2.30
2023-05-05T15:38:56.740Z,2.30
2023-05-05T15:44:06.556Z,2.40
2023-05-05T15:49:13.694Z,3.10
2023-05-05T15:54:21.138Z,2.90
2023-05-05T15:59:32.148Z,3.40
2023-05-05T16:04:40.447Z,2.60
2023-05-05T16:09:47.669Z,2.80
2023-05-05T16:14:54.729Z,3.60
2023-05-05T16:20:02.154Z,2.70
2023-05-05T16:25:11.205Z,3.30
2023-05-05T16:30:18.779Z,3.20
2023-05-05T16:35:26.157Z,3.10
2023-05-05T16:40:33.194Z,2.80
2023-05-05T16:45:40.295Z,2.70
2023-05-05T16:50:47.285Z,3.20
2023-05-05T16:55:55.049Z,3.50
2023-05-05T17:01:03.547Z,2.70
2023-05-05T17:06:11.209Z,4.70
2023-05-05T17:11:18.689Z,3.50
2023-05-05T17:16:26.330Z,2.80
2023-05-05T17:21:33.871Z,6.20
2023-05-05T17:26:45.963Z,3.70
2023-05-05T17:31:59.762Z,5.20
2023-05-05T17:37:16.446Z,5.60
2023-05-05T17:42:27.175Z,4.70
2023-05-05T17:47:34.388Z,4.40
2023-05-05T17:52:42.141Z,3.90
2023-05-05T17:57:49.097Z,4.10
2023-05-05T18:02:56.160Z,3.80
2023-05-05T18:08:03.288Z,3.60
2023-05-05T18:13:11.870Z,3.20
2023-05-05T18:18:18.973Z,2.80
2023-05-05T18:23:26.118Z,3.80
2023-05-05T18:28:33.181Z,3.70
2023-05-05T18:33:40.831Z,3.70
2023-05-05T18:38:48.097Z,4.40
2023-05-05T18:43:55.286Z,3.00
2023-05-05T18:49:02.390Z,3.40
2023-05-05T18:54:10.143Z,3.90
2023-05-05T18:59:19.868Z,3.40
2023-05-05T19:04:31.746Z,3.70
2023-05-05T19:09:40.658Z,3.70
2023-05-05T19:14:47.905Z,3.80
2023-05-05T19:19:55.073Z,3.50
2023-05-05T19:25:02.073Z,4.10
2023-05-05T19:30:11.231Z,3.20
2023-05-05T19:35:18.792Z,2.90
2023-05-05T19:40:26.047Z,3.30
2023-05-05T19:45:35.858Z,3.30
2023-05-05T19:50:43.248Z,3.10
2023-05-05T19:55:50.317Z,3.60
2023-05-05T20:00:57.527Z,3.00
2023-05-05T20:06:04.992Z,3.60
2023-05-05T20:11:12.603Z,4.00
2023-05-05T20:16:19.999Z,2.70
2023-05-05T20:21:27.298Z,3.90
2023-05-05T20:26:34.820Z,3.60
2023-05-05T20:31:41.932Z,3.70
2023-05-05T20:36:49.286Z,3.90
2023-05-05T20:41:56.741Z,4.10
2023-05-05T20:47:06.126Z,4.10
2023-05-05T20:52:13.195Z,3.40
2023-05-05T20:57:20.525Z,4.10
2023-05-05T21:02:27.917Z,4.20
2023-05-05T21:07:37.034Z,4.00
2023-05-05T21:12:44.023Z,4.70
2023-05-05T21:17:51.968Z,4.00
2023-05-05T21:23:03.733Z,4.50
2023-05-05T21:28:11.306Z,4.70
2023-05-05T21:33:18.224Z,4.60
2023-05-05T21:38:25.194Z,4.00
2023-05-05T21:43:32.216Z,5.30
2023-05-05T21:48:41.432Z,4.60
2023-05-05T21:53:48.450Z,4.60
2023-05-05T21:58:55.419Z,4.80
2023-05-05T22:04:02.520Z,4.80
2023-05-05T22:09:09.694Z,5.90
2023-05-05T22:14:16.720Z,4.70
2023-05-05T22:19:23.657Z,5.30
2023-05-05T22:24:30.900Z,4.90
2023-05-05T22:29:39.016Z,4.80
2023-05-05T22:34:45.998Z,5.80
2023-05-05T22:39:52.957Z,5.00
2023-05-05T22:44:59.865Z,5.50
2023-05-05T22:50:08.772Z,5.60
2023-05-05T22:55:16.204Z,6.30
2023-05-05T23:00:23.132Z,6.30
2023-05-05T23:05:30.494Z,5.50
2023-05-05T23:10:37.360Z,6.40
2023-05-05T23:15:44.409Z,5.90
2023-05-05T23:20:51.420Z,5.80
2023-05-05T23:25:58.445Z,5.90
2023-05-05T23:31:05.402Z,6.30
2023-05-05T23:36:12.591Z,6.20
2023-05-05T23:41:19.498Z,6.30
2023-05-05T23:46:26.504Z,5.20
2023-05-05T23:51:33.417Z,6.10
2023-05-05T23:56:40.976Z,5.60
